Preview of NWS' New Version of Forecast
This preview is not operational and should not be used for support decisions.

Terminal Aerodrome Forecast (TAF)

Issued by National Weather Service (NWS)

                            
000
FTUS45 KBOI 232321
TAFMYL
TAF
KMYL 232321Z 2400/2424 17007KT P6SM SCT250
     FM240200 VRB03KT P6SM SCT250
     FM242100 22015G22KT P6SM SCT250=